Time;durP1;ratioP1;P1;durP2;ratioP2;P2;SDS_P1;SDS_P2;PMS_P1;PMS_P2;Temp;Humidity;BMP_temperature;BMP_pressure;BME280_temperature;BME280_humidity;BME280_pressure;Samples;Min_cycle;Max_cycle;Signal;HPM_P1;HPM_P2
2024/02/04 00:00:25;;;;;;;0.50;0.50;;;10.20;99.90;;;;;;10433792;28;20212;-83
2024/02/04 00:05:29;;;;;;;0.40;0.40;;;10.20;99.90;;;;;;10438686;28;20268;-83
2024/02/04 00:10:32;;;;;;;0.50;0.50;;;10.30;99.90;;;;;;10430422;28;20201;-82
2024/02/04 00:15:34;;;;;;;0.50;0.50;;;10.30;99.90;;;;;;10437258;28;20271;-83
2024/02/04 00:20:38;;;;;;;0.30;0.30;;;10.30;99.70;;;;;;10420049;28;20197;-83
2024/02/04 00:25:41;;;;;;;0.40;0.40;;;10.30;99.90;;;;;;10452646;28;20214;-82
2024/02/04 00:30:43;;;;;;;0.40;0.40;;;10.20;99.90;;;;;;10425713;28;20218;-83
2024/02/04 00:35:49;;;;;;;0.30;0.30;;;10.20;99.80;;;;;;10439387;28;20217;-83
2024/02/04 00:40:54;;;;;;;0.50;0.50;;;10.10;99.90;;;;;;10446022;28;20209;-83
2024/02/04 00:45:57;;;;;;;0.30;0.30;;;9.90;99.90;;;;;;10459534;28;20262;-83
2024/02/04 00:51:01;;;;;;;0.30;0.30;;;9.80;99.90;;;;;;10447347;28;20625;-83
2024/02/04 00:56:04;;;;;;;0.30;0.30;;;9.80;99.90;;;;;;10445669;28;20224;-83
2024/02/04 01:01:06;;;;;;;0.30;0.30;;;9.80;99.90;;;;;;10445073;28;20197;-82
2024/02/04 01:06:10;;;;;;;0.40;0.40;;;9.80;99.90;;;;;;10450556;28;20221;-82
2024/02/04 01:11:13;;;;;;;0.30;0.30;;;9.80;99.90;;;;;;10405933;28;20205;-82
2024/02/04 01:16:15;;;;;;;0.30;0.30;;;9.80;99.90;;;;;;10428846;28;20303;-83
2024/02/04 01:21:21;;;;;;;0.30;0.30;;;9.80;99.90;;;;;;10411123;28;20212;-84
2024/02/04 01:26:24;;;;;;;0.40;0.40;;;9.80;99.90;;;;;;10405475;28;20225;-83
2024/02/04 01:31:26;;;;;;;0.40;0.40;;;9.90;99.90;;;;;;10404899;28;20201;-82
2024/02/04 01:36:30;;;;;;;0.30;0.30;;;9.80;99.90;;;;;;10421473;28;20276;-82
2024/02/04 01:41:33;;;;;;;0.30;0.30;;;9.80;99.90;;;;;;10402510;28;20667;-82
2024/02/04 01:46:35;;;;;;;0.30;0.30;;;9.80;99.90;;;;;;10405373;28;20260;-83
2024/02/04 01:51:39;;;;;;;0.40;0.40;;;9.70;99.90;;;;;;10400348;28;20206;-83
2024/02/04 01:56:42;;;;;;;0.30;0.30;;;9.70;99.90;;;;;;10399141;28;20646;-83
2024/02/04 02:01:45;;;;;;;0.40;0.40;;;9.70;99.90;;;;;;10390793;28;20206;-83
2024/02/04 02:06:49;;;;;;;0.40;0.40;;;9.70;99.90;;;;;;10395799;28;20225;-83
2024/02/04 02:11:58;;;;;;;0.30;0.30;;;9.70;99.90;;;;;;10398062;28;20194;-83
2024/02/04 02:17:07;;;;;;;0.40;0.40;;;9.80;99.90;;;;;;10396003;28;20229;-83
2024/02/04 02:22:22;;;;;;;0.30;0.30;;;9.80;99.90;;;;;;10406890;28;20217;-81
2024/02/04 02:27:26;;;;;;;0.30;0.30;;;9.80;99.90;;;;;;10382107;28;20270;-83
2024/02/04 02:32:28;;;;;;;0.40;0.40;;;9.70;99.90;;;;;;10404033;28;20208;-83
2024/02/04 02:37:38;;;;;;;0.40;0.40;;;9.80;99.90;;;;;;10405927;28;20706;-82
2024/02/04 02:42:43;;;;;;;0.40;0.40;;;9.80;99.90;;;;;;10419187;28;20241;-82
2024/02/04 02:47:48;;;;;;;0.33;0.33;;;9.80;99.90;;;;;;10399318;28;20576;-82
2024/02/04 02:52:51;;;;;;;0.30;0.30;;;9.80;99.90;;;;;;10396336;28;20788;-83
2024/02/04 02:57:55;;;;;;;0.40;0.40;;;9.80;99.90;;;;;;10413354;28;20244;-82
2024/02/04 03:02:57;;;;;;;0.30;0.30;;;9.80;99.90;;;;;;10391600;28;20252;-83
2024/02/04 03:08:00;;;;;;;0.30;0.30;;;9.80;99.90;;;;;;10388702;28;20229;-82
2024/02/04 03:13:05;;;;;;;0.30;0.30;;;9.80;99.90;;;;;;10396258;28;20206;-82
2024/02/04 03:18:07;;;;;;;0.30;0.30;;;9.80;99.90;;;;;;10409602;28;20602;-83
2024/02/04 03:23:10;;;;;;;0.30;0.30;;;9.80;99.90;;;;;;10415052;28;20198;-82
2024/02/04 03:28:14;;;;;;;0.30;0.30;;;9.80;99.90;;;;;;10434937;28;20209;-81
2024/02/04 03:33:16;;;;;;;0.30;0.30;;;9.80;99.90;;;;;;10420137;28;20687;-82
2024/02/04 03:38:18;;;;;;;0.50;0.50;;;9.80;99.90;;;;;;10418956;28;20784;-82
2024/02/04 03:43:22;;;;;;;0.30;0.30;;;9.70;99.90;;;;;;10424234;28;20197;-83
2024/02/04 03:48:25;;;;;;;0.40;0.40;;;9.80;99.90;;;;;;10420927;28;20691;-82
2024/02/04 03:53:28;;;;;;;0.30;0.30;;;9.80;99.90;;;;;;10427454;28;20733;-82
2024/02/04 03:58:33;;;;;;;0.40;0.40;;;9.80;99.90;;;;;;10424185;28;20222;-83
2024/02/04 04:03:36;;;;;;;0.60;0.60;;;9.80;99.90;;;;;;10417511;28;20209;-83
2024/02/04 04:08:39;;;;;;;0.60;0.60;;;9.80;99.90;;;;;;10444860;28;20190;-83
2024/02/04 04:13:42;;;;;;;0.50;0.50;;;9.80;99.90;;;;;;10447996;28;20672;-83
2024/02/04 04:18:45;;;;;;;0.60;0.60;;;9.80;99.90;;;;;;10442608;28;20243;-81
2024/02/04 04:23:47;;;;;;;0.50;0.50;;;9.80;99.90;;;;;;10480557;28;20266;-81
2024/02/04 04:28:51;;;;;;;0.60;0.60;;;9.80;99.90;;;;;;10461928;28;20261;-81
2024/02/04 04:33:53;;;;;;;0.50;0.50;;;9.80;99.90;;;;;;10447298;28;20659;-82
2024/02/04 04:38:56;;;;;;;0.67;0.67;;;9.90;99.90;;;;;;10435552;28;20245;-82
2024/02/04 04:43:59;;;;;;;0.50;0.50;;;9.80;99.90;;;;;;10465109;22;21436;-78
2024/02/04 04:49:02;;;;;;;0.50;0.50;;;9.90;99.90;;;;;;10496102;28;20196;-78
2024/02/04 04:54:04;;;;;;;0.50;0.50;;;9.90;99.90;;;;;;10495739;28;20965;-78
2024/02/04 04:59:08;;;;;;;0.70;0.70;;;9.90;99.90;;;;;;10493523;28;20238;-80
2024/02/04 05:04:10;;;;;;;0.50;0.50;;;9.90;99.90;;;;;;10495617;28;20224;-80
2024/02/04 05:09:12;;;;;;;0.60;0.60;;;9.90;99.90;;;;;;10496969;28;20192;-79
2024/02/04 05:14:16;;;;;;;0.50;0.50;;;9.90;99.90;;;;;;10495456;28;20214;-78
2024/02/04 05:19:18;;;;;;;0.50;0.50;;;9.90;99.90;;;;;;10492848;28;20213;-80
2024/02/04 05:24:21;;;;;;;0.50;0.50;;;9.90;99.90;;;;;;10493219;28;20208;-80
2024/02/04 05:29:24;;;;;;;0.50;0.50;;;9.90;99.90;;;;;;10492601;28;20569;-80
2024/02/04 05:34:27;;;;;;;0.70;0.70;;;9.90;99.90;;;;;;10492575;28;20200;-81
2024/02/04 05:39:29;;;;;;;0.60;0.60;;;9.90;99.90;;;;;;10490302;28;20727;-79
2024/02/04 05:44:33;;;;;;;0.47;0.47;;;9.80;99.90;;;;;;10492224;28;20236;-79
2024/02/04 05:49:35;;;;;;;0.53;0.53;;;9.80;99.90;;;;;;10491913;28;20193;-78
2024/02/04 05:54:41;;;;;;;0.50;0.50;;;9.80;99.90;;;;;;10502989;28;20216;-77
2024/02/04 05:59:47;;;;;;;0.50;0.50;;;9.80;99.90;;;;;;10494844;28;20281;-78
2024/02/04 06:04:49;;;;;;;0.60;0.60;;;9.80;99.90;;;;;;10491443;28;20266;-77
2024/02/04 06:09:51;;;;;;;0.60;0.60;;;9.80;99.90;;;;;;10491247;28;20200;-78
2024/02/04 06:14:55;;;;;;;0.40;0.40;;;9.80;99.90;;;;;;10490857;28;20216;-78
2024/02/04 06:20:00;;;;;;;0.50;0.50;;;9.80;99.90;;;;;;10495582;28;20247;-79
2024/02/04 06:25:03;;;;;;;0.50;0.50;;;9.70;99.90;;;;;;10490508;28;20216;-79
2024/02/04 06:30:08;;;;;;;0.60;0.60;;;9.70;99.90;;;;;;10490962;28;20193;-76
2024/02/04 06:35:10;;;;;;;0.60;0.60;;;9.80;99.90;;;;;;10490497;28;20221;-80
2024/02/04 06:40:13;;;;;;;0.70;0.70;;;9.80;99.90;;;;;;10491036;28;20212;-79
2024/02/04 06:45:17;;;;;;;0.53;0.53;;;9.80;99.90;;;;;;10490574;28;20235;-79
2024/02/04 06:50:19;;;;;;;0.60;0.60;;;9.80;99.90;;;;;;10491126;28;20220;-81
2024/02/04 06:55:21;;;;;;;0.60;0.60;;;9.80;99.90;;;;;;10507127;28;20217;-80
2024/02/04 07:00:25;;;;;;;0.50;0.50;;;9.80;99.90;;;;;;10512228;28;20220;-81
2024/02/04 07:05:27;;;;;;;0.60;0.60;;;9.80;99.90;;;;;;10502988;28;20633;-79
2024/02/04 07:10:30;;;;;;;0.70;0.70;;;9.80;99.90;;;;;;10497894;28;20250;-78
2024/02/04 07:15:33;;;;;;;0.50;0.50;;;9.70;99.90;;;;;;10498823;28;20224;-78
2024/02/04 07:20:36;;;;;;;0.70;0.70;;;9.70;99.90;;;;;;10498132;28;20664;-78
2024/02/04 07:25:38;;;;;;;0.53;0.53;;;9.60;99.90;;;;;;10497974;28;20213;-78
2024/02/04 07:30:42;;;;;;;0.60;0.60;;;9.60;99.90;;;;;;10498421;28;20196;-78
2024/02/04 07:35:44;;;;;;;0.60;0.60;;;9.50;99.90;;;;;;10499214;28;20281;-78
2024/02/04 07:40:46;;;;;;;0.50;0.50;;;9.50;99.90;;;;;;10498860;28;20216;-78
2024/02/04 07:45:50;;;;;;;0.50;0.50;;;9.50;99.90;;;;;;10498472;28;20227;-80
2024/02/04 07:50:53;;;;;;;0.60;0.60;;;9.60;99.90;;;;;;10518906;28;20496;-80
2024/02/04 07:55:55;;;;;;;0.70;0.70;;;9.70;99.90;;;;;;10498198;28;20778;-81
2024/02/04 08:00:59;;;;;;;0.60;0.60;;;9.70;99.90;;;;;;10499145;28;20216;-81
2024/02/04 08:06:02;;;;;;;0.60;0.60;;;9.80;99.90;;;;;;10498473;28;20213;-79
2024/02/04 08:11:05;;;;;;;0.40;0.40;;;9.90;99.90;;;;;;10499016;28;20192;-79
2024/02/04 08:16:08;;;;;;;0.50;0.50;;;9.90;99.90;;;;;;10495927;28;20615;-80
2024/02/04 08:21:11;;;;;;;0.60;0.60;;;9.90;99.90;;;;;;10495069;28;20216;-79
2024/02/04 08:26:13;;;;;;;0.73;0.73;;;9.90;99.90;;;;;;10494806;28;20588;-78
2024/02/04 08:31:17;;;;;;;0.40;0.40;;;9.90;99.90;;;;;;10493328;28;20274;-79
2024/02/04 08:36:20;;;;;;;0.50;0.50;;;10.00;99.90;;;;;;10494604;28;20790;-80
2024/02/04 08:41:22;;;;;;;0.40;0.40;;;10.10;99.90;;;;;;10494270;28;20333;-78
2024/02/04 08:46:26;;;;;;;0.40;0.40;;;10.30;99.90;;;;;;10493370;28;20361;-79
2024/02/04 08:51:28;;;;;;;0.50;0.50;;;10.40;99.90;;;;;;10493757;28;20212;-78
2024/02/04 08:56:30;;;;;;;0.50;0.50;;;10.50;99.90;;;;;;10473174;28;20247;-78
2024/02/04 09:01:34;;;;;;;0.40;0.40;;;10.60;99.90;;;;;;10492449;28;20747;-79
2024/02/04 09:06:36;;;;;;;0.40;0.40;;;10.70;99.90;;;;;;10492317;28;20224;-78
2024/02/04 09:11:39;;;;;;;0.50;0.50;;;10.80;99.90;;;;;;10491861;28;20189;-77
2024/02/04 09:16:42;;;;;;;0.40;0.40;;;10.80;99.90;;;;;;10491230;28;20220;-78
2024/02/04 09:21:45;;;;;;;0.40;0.40;;;10.80;99.90;;;;;;10489903;28;20223;-77
2024/02/04 09:26:47;;;;;;;0.30;0.30;;;10.90;99.90;;;;;;10488960;28;20694;-81
2024/02/04 09:31:51;;;;;;;0.40;0.40;;;11.00;99.90;;;;;;10490807;28;20188;-77
2024/02/04 09:36:54;;;;;;;0.50;0.50;;;11.00;99.80;;;;;;10489989;28;20204;-78
2024/02/04 09:41:56;;;;;;;0.40;0.40;;;11.10;99.90;;;;;;10490102;28;20236;-79
2024/02/04 09:47:00;;;;;;;0.37;0.37;;;11.20;99.90;;;;;;10490284;28;20220;-80
2024/02/04 09:52:09;;;;;;;0.50;0.50;;;11.40;99.70;;;;;;10478810;28;20181;-78
2024/02/04 09:57:11;;;;;;;0.50;0.50;;;11.50;99.90;;;;;;10498044;28;20224;-79
2024/02/04 10:02:16;;;;;;;0.40;0.40;;;11.60;99.70;;;;;;10491869;28;20231;-77
2024/02/04 10:07:19;;;;;;;0.40;0.40;;;11.70;99.10;;;;;;10494826;28;20591;-77
2024/02/04 10:12:21;;;;;;;0.43;0.43;;;11.80;99.20;;;;;;10491551;28;20666;-78
2024/02/04 10:17:26;;;;;;;0.43;0.43;;;11.80;99.10;;;;;;10488217;28;20681;-78
2024/02/04 10:22:28;;;;;;;0.50;0.50;;;11.90;99.00;;;;;;10488402;28;20250;-77
2024/02/04 10:27:31;;;;;;;0.50;0.50;;;12.00;99.40;;;;;;10488898;28;20220;-79
2024/02/04 10:32:35;;;;;;;0.40;0.40;;;12.10;99.00;;;;;;10489611;28;20196;-77
2024/02/04 10:37:37;;;;;;;0.40;0.40;;;12.10;99.00;;;;;;10497037;28;20269;-77
2024/02/04 10:42:43;;;;;;;0.40;0.40;;;12.20;99.00;;;;;;10495633;28;20212;-78
2024/02/04 10:47:56;;;;;;;0.50;0.50;;;12.30;99.00;;;;;;10493636;28;20835;-80
2024/02/04 10:53:02;;;;;;;0.40;0.40;;;12.50;99.20;;;;;;10494226;28;20180;-80
2024/02/04 10:58:07;;;;;;;0.47;0.47;;;12.70;99.00;;;;;;10474100;22;20229;-78
2024/02/04 11:03:12;;;;;;;0.40;0.40;;;13.00;98.90;;;;;;10416844;28;20198;-80
2024/02/04 11:08:14;;;;;;;0.40;0.40;;;13.10;99.10;;;;;;10412027;28;20583;-78
2024/02/04 11:13:17;;;;;;;0.50;0.50;;;13.00;98.60;;;;;;10409240;28;20202;-79
2024/02/04 11:18:40;;;;;;;0.50;0.50;;;13.00;98.30;;;;;;10418856;28;20296;-79
2024/02/04 11:23:52;;;;;;;0.40;0.40;;;12.90;98.50;;;;;;10418734;28;20199;-78
2024/02/04 11:28:54;;;;;;;0.40;0.40;;;12.70;98.90;;;;;;10419152;28;20222;-80
2024/02/04 11:33:58;;;;;;;0.30;0.30;;;12.90;99.30;;;;;;10413341;28;20210;-79
2024/02/04 11:39:03;;;;;;;0.40;0.40;;;13.20;99.20;;;;;;10412339;28;20218;-76
2024/02/04 11:44:09;;;;;;;0.40;0.40;;;13.50;98.60;;;;;;10413669;28;20248;-79
2024/02/04 11:49:17;;;;;;;0.40;0.40;;;13.50;98.70;;;;;;10412250;28;20703;-79
2024/02/04 11:54:22;;;;;;;0.40;0.40;;;13.60;98.60;;;;;;10412750;28;20213;-79
2024/02/04 11:59:25;;;;;;;0.50;0.50;;;13.60;98.40;;;;;;10412172;28;20233;-81
2024/02/04 12:04:29;;;;;;;0.40;0.40;;;13.50;98.40;;;;;;10408176;28;20205;-78
2024/02/04 12:09:32;;;;;;;0.40;0.40;;;13.50;98.10;;;;;;10411831;28;20697;-79
2024/02/04 12:14:36;;;;;;;0.30;0.30;;;13.40;98.30;;;;;;10411917;28;20283;-81
2024/02/04 12:19:39;;;;;;;0.30;0.30;;;13.20;98.30;;;;;;10421855;28;20222;-79
2024/02/04 12:24:42;;;;;;;0.40;0.40;;;13.10;98.60;;;;;;10409877;28;20198;-77
2024/02/04 12:29:44;;;;;;;0.40;0.40;;;12.90;98.50;;;;;;10410274;28;20817;-80
2024/02/04 12:34:53;;;;;;;0.30;0.30;;;12.80;98.80;;;;;;10410839;28;20193;-78
2024/02/04 12:39:56;;;;;;;0.50;0.50;;;12.70;98.90;;;;;;10411033;28;20275;-79
2024/02/04 12:44:59;;;;;;;0.40;0.40;;;12.70;99.10;;;;;;10409683;28;20207;-80
2024/02/04 12:50:02;;;;;;;0.40;0.40;;;12.70;99.00;;;;;;10420542;28;20241;-79
2024/02/04 12:55:05;;;;;;;0.30;0.30;;;12.80;99.20;;;;;;10408561;28;20209;-81
2024/02/04 13:00:10;;;;;;;0.40;0.40;;;12.80;99.00;;;;;;10413553;28;20633;-78
2024/02/04 13:05:25;;;;;;;0.50;0.50;;;12.90;99.20;;;;;;10410577;28;20244;-77
2024/02/04 13:10:28;;;;;;;0.40;0.40;;;13.00;99.10;;;;;;10404469;28;20631;-79
2024/02/04 13:15:31;;;;;;;0.40;0.40;;;13.20;98.70;;;;;;10409766;28;20205;-78
2024/02/04 13:20:36;;;;;;;0.50;0.50;;;13.20;98.90;;;;;;10410574;28;20225;-80
2024/02/04 13:25:38;;;;;;;0.40;0.40;;;13.30;98.80;;;;;;10410595;28;20201;-78
2024/02/04 13:30:41;;;;;;;0.33;0.33;;;13.30;98.40;;;;;;10411395;28;20589;-78
2024/02/04 13:35:45;;;;;;;0.40;0.40;;;13.30;98.80;;;;;;10410434;28;20756;-78
2024/02/04 13:40:47;;;;;;;0.40;0.40;;;13.30;98.70;;;;;;10410660;28;20225;-78
2024/02/04 13:45:50;;;;;;;0.30;0.30;;;13.30;98.80;;;;;;10410066;28;20225;-77
2024/02/04 13:50:54;;;;;;;0.40;0.40;;;13.30;98.20;;;;;;10411433;28;20251;-80
2024/02/04 13:55:56;;;;;;;0.40;0.40;;;13.30;98.20;;;;;;10411110;28;20706;-78
2024/02/04 14:00:59;;;;;;;0.40;0.40;;;13.20;98.00;;;;;;10409310;28;20217;-76
2024/02/04 14:06:04;;;;;;;0.50;0.50;;;13.10;98.50;;;;;;10404865;28;20210;-81
2024/02/04 14:11:06;;;;;;;0.40;0.40;;;13.00;98.50;;;;;;10406823;28;20202;-80
2024/02/04 14:16:10;;;;;;;0.40;0.40;;;12.90;98.70;;;;;;10403122;28;20218;-79
2024/02/04 14:21:14;;;;;;;0.40;0.40;;;13.00;98.40;;;;;;10407813;28;20271;-82
2024/02/04 14:26:18;;;;;;;0.40;0.40;;;12.90;98.80;;;;;;10404606;28;20279;-81
2024/02/04 14:31:21;;;;;;;0.30;0.30;;;12.90;99.10;;;;;;10402714;28;20271;-81
2024/02/04 14:36:25;;;;;;;0.50;0.50;;;12.90;98.90;;;;;;10406068;28;20221;-80
2024/02/04 14:41:27;;;;;;;0.40;0.40;;;12.80;98.90;;;;;;10404359;28;20221;-78
2024/02/04 14:46:29;;;;;;;0.50;0.50;;;12.80;99.10;;;;;;10409847;28;20225;-78
2024/02/04 14:51:35;;;;;;;0.50;0.50;;;12.70;98.80;;;;;;10407545;28;20224;-82
2024/02/04 14:56:40;;;;;;;0.40;0.40;;;12.70;99.00;;;;;;10407163;28;20291;-81
2024/02/04 15:01:46;;;;;;;0.50;0.50;;;12.60;99.30;;;;;;10403073;28;20576;-79
2024/02/04 15:06:50;;;;;;;0.50;0.50;;;12.60;99.10;;;;;;10403272;28;20228;-81
2024/02/04 15:11:52;;;;;;;0.40;0.40;;;12.60;99.00;;;;;;10402837;28;20618;-80
2024/02/04 15:16:56;;;;;;;0.50;0.50;;;12.50;99.20;;;;;;10419302;28;20218;-81
2024/02/04 15:22:01;;;;;;;0.30;0.30;;;12.40;99.30;;;;;;10408493;28;20225;-83
2024/02/04 15:27:04;;;;;;;0.50;0.50;;;12.40;99.10;;;;;;10409503;28;20236;-83
2024/02/04 15:32:08;;;;;;;0.33;0.33;;;12.40;99.10;;;;;;10429380;28;20201;-80
2024/02/04 15:37:13;;;;;;;0.40;0.40;;;12.30;99.20;;;;;;10416939;28;20241;-80
2024/02/04 15:42:16;;;;;;;0.40;0.40;;;12.30;99.30;;;;;;10399532;28;20222;-80
2024/02/04 15:47:20;;;;;;;0.40;0.40;;;12.20;99.40;;;;;;10432608;28;20218;-78
2024/02/04 15:52:25;;;;;;;0.30;0.30;;;12.10;99.50;;;;;;10447174;28;20187;-82
2024/02/04 15:57:34;;;;;;;0.40;0.40;;;12.10;99.50;;;;;;10436192;28;20225;-82
2024/02/04 16:02:37;;;;;;;0.40;0.40;;;12.00;99.70;;;;;;10434013;28;20240;-83
2024/02/04 16:07:42;;;;;;;0.37;0.37;;;11.90;99.60;;;;;;10427471;28;20241;-81
2024/02/04 16:12:54;;;;;;;0.40;0.40;;;11.90;99.80;;;;;;10410034;28;20407;-82
2024/02/04 16:17:58;;;;;;;0.40;0.40;;;11.80;99.80;;;;;;10429726;28;20505;-81
2024/02/04 16:23:02;;;;;;;0.50;0.50;;;11.70;99.90;;;;;;10433091;28;20859;-81
2024/02/04 16:28:05;;;;;;;0.40;0.40;;;11.60;99.90;;;;;;10429343;28;20214;-80
2024/02/04 16:33:07;;;;;;;0.30;0.30;;;11.50;99.90;;;;;;10430020;28;20186;-81
2024/02/04 16:38:11;;;;;;;0.50;0.50;;;11.40;99.90;;;;;;10427923;28;20256;-85
2024/02/04 16:43:14;;;;;;;0.50;0.50;;;11.30;99.90;;;;;;10437223;28;20217;-83
2024/02/04 16:48:16;;;;;;;0.50;0.50;;;11.30;99.90;;;;;;10431902;28;20217;-84
2024/02/04 16:53:20;;;;;;;0.40;0.40;;;11.30;99.90;;;;;;10430582;28;20196;-83
2024/02/04 16:58:22;;;;;;;0.40;0.40;;;11.30;99.90;;;;;;10434598;28;20222;-81
2024/02/04 17:03:25;;;;;;;0.40;0.40;;;11.20;99.90;;;;;;10428396;28;20233;-79
2024/02/04 17:08:29;;;;;;;0.40;0.40;;;11.30;99.90;;;;;;10423029;28;20218;-80
2024/02/04 17:13:32;;;;;;;0.50;0.50;;;11.30;99.90;;;;;;10412886;28;20252;-80
2024/02/04 17:18:42;;;;;;;0.50;0.50;;;11.30;99.90;;;;;;10421098;28;20237;-80
2024/02/04 17:23:51;;;;;;;0.30;0.30;;;11.20;99.90;;;;;;10421518;28;20226;-79
2024/02/04 17:28:54;;;;;;;0.50;0.50;;;11.20;99.90;;;;;;10421128;28;20218;-80
2024/02/04 17:33:59;;;;;;;0.50;0.50;;;11.10;99.90;;;;;;10411314;28;20198;-79
2024/02/04 17:39:05;;;;;;;0.50;0.50;;;11.10;99.90;;;;;;10423399;28;20210;-79
2024/02/04 17:44:07;;;;;;;0.70;0.70;;;11.00;99.90;;;;;;10416117;28;20218;-80
2024/02/04 17:49:09;;;;;;;0.40;0.40;;;11.00;99.90;;;;;;10424482;28;20219;-79
2024/02/04 17:54:13;;;;;;;0.40;0.40;;;10.90;99.90;;;;;;10421136;28;20202;-79
2024/02/04 17:59:15;;;;;;;0.50;0.50;;;10.90;99.90;;;;;;10398363;28;20225;-80
2024/02/04 18:04:18;;;;;;;0.40;0.40;;;10.90;99.90;;;;;;10411648;28;20720;-80
2024/02/04 18:09:22;;;;;;;0.40;0.40;;;10.80;99.90;;;;;;10391248;28;20238;-83
2024/02/04 18:14:25;;;;;;;0.50;0.50;;;10.80;99.90;;;;;;10391728;28;20251;-81
2024/02/04 18:19:27;;;;;;;0.50;0.50;;;10.80;99.90;;;;;;10397083;28;20225;-81
2024/02/04 18:24:34;;;;;;;0.50;0.50;;;10.70;99.90;;;;;;10402230;28;20226;-80
2024/02/04 18:29:37;;;;;;;0.43;0.43;;;10.70;99.90;;;;;;10411985;28;20221;-82
2024/02/04 18:34:39;;;;;;;0.40;0.40;;;10.60;99.90;;;;;;10409751;28;20198;-81
2024/02/04 18:39:43;;;;;;;0.50;0.50;;;10.60;99.90;;;;;;10401856;28;20234;-82
2024/02/04 18:44:47;;;;;;;0.40;0.40;;;10.60;99.90;;;;;;10402536;28;20751;-82
2024/02/04 18:49:49;;;;;;;0.50;0.50;;;10.60;99.90;;;;;;10408040;28;20231;-83
2024/02/04 18:54:55;;;;;;;0.40;0.40;;;10.50;99.90;;;;;;10417021;28;20608;-81
2024/02/04 18:59:58;;;;;;;0.43;0.43;;;10.50;99.90;;;;;;10423086;28;20596;-82
2024/02/04 19:05:00;;;;;;;0.50;0.50;;;10.50;99.90;;;;;;10420438;28;20223;-81
2024/02/04 19:10:05;;;;;;;0.40;0.40;;;10.50;99.90;;;;;;10427882;28;20667;-81
2024/02/04 19:15:09;;;;;;;0.40;0.40;;;10.50;99.90;;;;;;10421342;28;21140;-82
2024/02/04 19:20:12;;;;;;;0.40;0.40;;;10.50;99.90;;;;;;10432066;28;20228;-81
2024/02/04 19:25:18;;;;;;;0.50;0.50;;;10.50;99.90;;;;;;10431977;28;20222;-79
2024/02/04 19:30:22;;;;;;;0.50;0.50;;;10.40;99.90;;;;;;10429527;28;20230;-81
2024/02/04 19:35:25;;;;;;;0.40;0.40;;;10.40;99.90;;;;;;10433395;28;20664;-81
2024/02/04 19:40:29;;;;;;;0.50;0.50;;;10.40;99.90;;;;;;10440479;28;20198;-81
2024/02/04 19:45:31;;;;;;;0.50;0.50;;;10.40;99.90;;;;;;10430927;28;20210;-80
2024/02/04 19:50:34;;;;;;;0.40;0.40;;;10.40;99.90;;;;;;10438241;28;20201;-82
2024/02/04 19:55:37;;;;;;;0.40;0.40;;;10.40;99.90;;;;;;10433400;28;20205;-83
2024/02/04 20:00:40;;;;;;;0.50;0.50;;;10.30;99.90;;;;;;10454464;28;20197;-82
2024/02/04 20:05:42;;;;;;;0.40;0.40;;;10.30;99.90;;;;;;10434421;28;20194;-83
2024/02/04 20:10:47;;;;;;;0.40;0.40;;;10.30;99.90;;;;;;10437810;28;20227;-82
2024/02/04 20:15:49;;;;;;;0.40;0.40;;;10.40;99.90;;;;;;10430828;28;20230;-81
2024/02/04 20:20:52;;;;;;;0.40;0.40;;;10.30;99.90;;;;;;10436353;28;20212;-82
2024/02/04 20:25:56;;;;;;;0.50;0.50;;;10.30;99.90;;;;;;10429124;28;20230;-83
2024/02/04 20:31:02;;;;;;;0.40;0.40;;;10.30;99.90;;;;;;10424830;28;20209;-82
2024/02/04 20:36:06;;;;;;;0.40;0.40;;;10.20;99.90;;;;;;10431563;28;20222;-81
2024/02/04 20:41:10;;;;;;;0.53;0.53;;;10.20;99.90;;;;;;10429288;28;20689;-82
2024/02/04 20:46:12;;;;;;;0.40;0.40;;;10.20;99.90;;;;;;10439678;28;20237;-83
2024/02/04 20:51:15;;;;;;;0.40;0.40;;;10.10;99.90;;;;;;10437606;28;20219;-81
2024/02/04 20:56:20;;;;;;;0.50;0.50;;;10.10;99.90;;;;;;10432164;28;20236;-81
2024/02/04 21:01:23;;;;;;;0.40;0.40;;;10.10;99.90;;;;;;10417718;28;20237;-80
2024/02/04 21:06:30;;;;;;;0.40;0.40;;;10.10;99.90;;;;;;10423186;28;20249;-80
2024/02/04 21:11:34;;;;;;;0.40;0.40;;;10.00;99.90;;;;;;10430566;28;20194;-83
2024/02/04 21:16:37;;;;;;;0.50;0.50;;;10.00;99.90;;;;;;10429589;28;20280;-82
2024/02/04 21:21:39;;;;;;;0.50;0.50;;;9.90;99.90;;;;;;10416776;28;20296;-82
2024/02/04 21:26:43;;;;;;;0.50;0.50;;;9.80;99.90;;;;;;10416844;28;20251;-81
2024/02/04 21:31:46;;;;;;;0.30;0.30;;;9.70;99.90;;;;;;10420584;28;20198;-82
2024/02/04 21:36:48;;;;;;;0.30;0.30;;;9.60;99.90;;;;;;10423828;28;20739;-80
2024/02/04 21:41:52;;;;;;;0.37;0.37;;;9.50;99.90;;;;;;10428443;28;20563;-80
2024/02/04 21:46:54;;;;;;;0.40;0.40;;;9.50;99.90;;;;;;10431694;28;20280;-81
2024/02/04 21:51:57;;;;;;;0.40;0.40;;;9.30;99.90;;;;;;10433493;28;20206;-81
2024/02/04 21:57:01;;;;;;;0.30;0.30;;;9.20;99.90;;;;;;10431876;28;20225;-82
2024/02/04 22:02:03;;;;;;;0.30;0.30;;;9.20;99.90;;;;;;10424913;28;20221;-81
2024/02/04 22:07:06;;;;;;;0.40;0.40;;;9.10;99.90;;;;;;10429596;28;20214;-82
2024/02/04 22:12:09;;;;;;;0.30;0.30;;;9.10;99.90;;;;;;10419864;28;20197;-80
2024/02/04 22:17:12;;;;;;;0.40;0.40;;;9.10;99.90;;;;;;10425834;28;20222;-80
2024/02/04 22:22:14;;;;;;;0.43;0.43;;;8.90;99.90;;;;;;10427728;28;20261;-80
2024/02/04 22:27:18;;;;;;;0.30;0.30;;;9.00;99.90;;;;;;10416504;28;20221;-80
2024/02/04 22:32:21;;;;;;;0.40;0.40;;;8.90;99.90;;;;;;10425556;28;20193;-80
2024/02/04 22:37:23;;;;;;;0.40;0.40;;;8.80;99.90;;;;;;10425951;28;20210;-80
2024/02/04 22:42:27;;;;;;;0.40;0.40;;;8.80;99.90;;;;;;10429397;28;20240;-81
2024/02/04 22:47:29;;;;;;;0.50;0.50;;;8.70;99.90;;;;;;10429713;28;20272;-80
2024/02/04 22:52:32;;;;;;;0.40;0.40;;;8.70;99.90;;;;;;10433902;28;20237;-83
2024/02/04 22:57:35;;;;;;;0.40;0.40;;;8.70;99.90;;;;;;10428490;28;20245;-82
2024/02/04 23:02:38;;;;;;;0.40;0.40;;;8.70;99.90;;;;;;10430105;28;20226;-81
2024/02/04 23:07:40;;;;;;;0.50;0.50;;;8.70;99.90;;;;;;10436356;28;20229;-81
2024/02/04 23:12:44;;;;;;;0.57;0.57;;;8.70;99.90;;;;;;10424608;28;20199;-81
2024/02/04 23:17:46;;;;;;;0.57;0.57;;;8.70;99.90;;;;;;10425758;28;20226;-80
2024/02/04 23:22:49;;;;;;;0.57;0.57;;;8.70;99.90;;;;;;10424921;28;20221;-85
2024/02/04 23:27:53;;;;;;;0.60;0.60;;;8.70;99.90;;;;;;10423533;28;20245;-82
2024/02/04 23:32:55;;;;;;;0.43;0.43;;;8.70;99.90;;;;;;10425058;28;20201;-79
2024/02/04 23:37:58;;;;;;;0.60;0.60;;;8.70;99.90;;;;;;10424629;28;20226;-78
2024/02/04 23:43:01;;;;;;;0.60;0.60;;;8.70;99.90;;;;;;10422983;28;20210;-80
2024/02/04 23:48:07;;;;;;;0.60;0.60;;;8.80;99.90;;;;;;10414514;28;20227;-79
2024/02/04 23:53:10;;;;;;;0.70;0.70;;;8.80;99.90;;;;;;10416190;28;20190;-80
2024/02/04 23:58:15;;;;;;;0.50;0.50;;;8.90;99.90;;;;;;10413655;28;20230;-82
